KMWC/MWC METAR and TAF weather

Enter ICAO airport designator
Station Type Date Time Source
KMWC METAR 2021/08/02 01:55 UTC NOAA

KMWC 020155Z AUTO 04004KT 10SM CLR 18/10 A3014 RMK AO2


Station Type Date Time Source
KMWC Decoded METAR 2021/08/02 01:55 UTC NOAA

Milwaukee / Timmerman, WI, United States (KMWC) 43-07N 088-02W
Aug 01, 2021 - 09:55 PM EDT / 2021.08.02 0155 UTC
Wind: from the NE (040 degrees) at 5 MPH (4 KT):0
Visibility: 10 mile(s):0
Sky conditions: clear
Temperature: 64 F (18 C)
Dew Point: 50 F (10 C)
Relative Humidity: 59%
Pressure (altimeter): 30.14 in. Hg (1020 hPa)
ob: KMWC 020155Z AUTO 04004KT 10SM CLR 18/10 A3014 RMK AO2
cycle: 2

Station Type Date Time Source
KMWC TAF UTC NOAA

Error!

Example: see airport list